Time;durP1;ratioP1;P1;durP2;ratioP2;P2;SDS_P1;SDS_P2;PMS_P1;PMS_P2;Temp;Humidity;BMP_temperature;BMP_pressure;BME280_temperature;BME280_humidity;BME280_pressure;Samples;Min_cycle;Max_cycle;Signal;HPM_P1;HPM_P2
2023/01/05 00:00:18;;;;;;;27.58;7.25;;;10.70;99.90;;;;;;5117535;28;20165;-55
2023/01/05 00:02:46;;;;;;;26.58;7.57;;;10.70;99.90;;;;;;5117372;28;20731;-54
2023/01/05 00:05:11;;;;;;;30.25;8.10;;;10.80;99.90;;;;;;5117336;28;20173;-54
2023/01/05 00:07:37;;;;;;;28.60;7.88;;;10.80;99.90;;;;;;5116226;28;20519;-55
2023/01/05 00:10:03;;;;;;;30.70;8.25;;;10.70;99.90;;;;;;5117726;28;20190;-55
2023/01/05 00:23:39;;;;;;;23.27;7.57;;;10.90;99.90;;;;;;5117227;28;20255;-54
2023/01/05 00:26:05;;;;;;;30.30;7.70;;;10.80;99.90;;;;;;5116985;28;20177;-54
2023/01/05 00:28:30;;;;;;;30.08;7.97;;;10.80;99.90;;;;;;5117151;28;20169;-55
2023/01/05 00:30:56;;;;;;;28.90;7.70;;;10.90;99.90;;;;;;5117251;28;20314;-54
2023/01/05 00:33:22;;;;;;;29.42;7.60;;;10.90;99.90;;;;;;5116957;28;20177;-53
2023/01/05 00:35:47;;;;;;;26.88;7.65;;;10.90;99.90;;;;;;5116775;28;20215;-56
2023/01/05 00:38:16;;;;;;;32.08;7.80;;;10.90;99.90;;;;;;5116679;28;20227;-54
2023/01/05 00:40:41;;;;;;;26.15;7.25;;;10.90;99.90;;;;;;5116873;28;20177;-54
2023/01/05 00:43:07;;;;;;;32.25;7.43;;;11.00;99.90;;;;;;5115838;28;20664;-54
2023/01/05 00:45:33;;;;;;;26.50;7.65;;;11.00;99.90;;;;;;5115336;28;20181;-54
2023/01/05 00:47:59;;;;;;;33.20;8.18;;;10.90;99.90;;;;;;5116922;28;20173;-53
2023/01/05 00:50:25;;;;;;;29.10;7.68;;;10.90;99.90;;;;;;5116513;28;20173;-54
2023/01/05 00:52:50;;;;;;;28.42;8.15;;;10.90;99.90;;;;;;5116414;28;20169;-54
2023/01/05 00:55:16;;;;;;;29.90;8.38;;;10.90;99.90;;;;;;5116355;28;20181;-54
2023/01/05 00:57:42;;;;;;;25.95;7.15;;;10.90;99.90;;;;;;5116535;28;20170;-54
2023/01/05 01:00:13;;;;;;;37.63;8.23;;;10.90;99.90;;;;;;5116272;28;20170;-54
2023/01/05 01:02:39;;;;;;;22.40;6.82;;;11.00;99.90;;;;;;5116183;28;20201;-54
2023/01/05 01:05:05;;;;;;;24.00;7.25;;;10.90;99.90;;;;;;5116544;28;20635;-54
2023/01/05 01:07:31;;;;;;;26.45;6.72;;;10.90;99.90;;;;;;5115922;28;20181;-54
2023/01/05 01:09:57;;;;;;;26.17;6.90;;;10.80;99.90;;;;;;5116110;28;20169;-56
2023/01/05 01:12:31;;;;;;;24.00;6.75;;;10.80;99.90;;;;;;5116293;28;20185;-55
2023/01/05 01:14:57;;;;;;;30.55;6.80;;;10.70;99.90;;;;;;5114852;28;20541;-54
2023/01/05 01:17:27;;;;;;;25.90;6.90;;;10.70;99.90;;;;;;5115843;28;20189;-55
2023/01/05 01:19:52;;;;;;;27.38;7.68;;;10.60;99.90;;;;;;5116096;28;20176;-55
2023/01/05 01:22:18;;;;;;;32.05;7.43;;;10.60;99.90;;;;;;5115727;28;20209;-54
2023/01/05 01:24:43;;;;;;;25.75;6.90;;;10.60;99.90;;;;;;5115773;28;20197;-54
2023/01/05 01:27:09;;;;;;;29.23;8.10;;;10.60;99.90;;;;;;5115780;28;20180;-54
2023/01/05 01:29:35;;;;;;;25.67;7.47;;;10.70;99.90;;;;;;5115858;28;20200;-54
2023/01/05 01:32:00;;;;;;;27.80;7.13;;;10.70;99.90;;;;;;5115761;28;20630;-54
2023/01/05 01:34:26;;;;;;;28.42;7.30;;;10.70;99.90;;;;;;5115692;28;20181;-54
2023/01/05 01:36:54;;;;;;;26.85;6.30;;;10.50;99.90;;;;;;5115578;28;20184;-54
2023/01/05 01:39:20;;;;;;;35.63;7.28;;;10.50;99.90;;;;;;5115691;28;20204;-55
2023/01/05 01:41:45;;;;;;;32.08;7.38;;;10.50;99.90;;;;;;5115396;28;20674;-54
2023/01/05 01:44:48;;;;;;;31.50;7.15;;;10.50;99.90;;;;;;5115436;28;20193;-56
2023/01/05 01:47:32;;;;;;;26.42;8.00;;;10.50;99.90;;;;;;5115363;28;20171;-54
2023/01/05 01:50:13;;;;;;;30.73;7.65;;;10.50;99.90;;;;;;5115466;28;20630;-53
2023/01/05 01:52:39;;;;;;;24.10;6.95;;;10.60;99.90;;;;;;5115448;28;20173;-53
2023/01/05 01:55:06;;;;;;;25.05;6.63;;;10.60;99.90;;;;;;5115287;28;20658;-55
2023/01/05 01:57:33;;;;;;;28.35;7.20;;;10.60;99.90;;;;;;5115145;28;20212;-54
2023/01/05 02:00:01;;;;;;;24.13;6.85;;;10.60;99.90;;;;;;5114194;28;20229;-53
2023/01/05 02:02:27;;;;;;;30.08;7.30;;;10.50;99.90;;;;;;5115164;28;20315;-54
2023/01/05 02:04:55;;;;;;;27.15;7.22;;;10.60;99.90;;;;;;5115140;28;20193;-55
2023/01/05 02:07:24;;;;;;;28.67;6.43;;;10.60;99.90;;;;;;5115014;28;20199;-55
2023/01/05 02:09:49;;;;;;;27.52;7.30;;;10.70;99.90;;;;;;5114831;28;20250;-56
2023/01/05 02:12:15;;;;;;;23.20;7.40;;;10.70;99.90;;;;;;5115452;28;20209;-54
2023/01/05 02:15:04;;;;;;;30.70;7.15;;;10.80;99.90;;;;;;5115071;28;20250;-54
2023/01/05 02:17:44;;;;;;;20.30;6.32;;;11.00;99.90;;;;;;5114987;28;20165;-52
2023/01/05 02:20:21;;;;;;;30.48;7.45;;;11.00;99.90;;;;;;5114445;28;20169;-56
2023/01/05 02:23:07;;;;;;;29.38;6.82;;;11.10;99.90;;;;;;5114816;28;20208;-54
2023/01/05 02:25:55;;;;;;;29.33;7.88;;;11.00;99.90;;;;;;5114833;28;20177;-54
2023/01/05 02:29:01;;;;;;;25.30;6.57;;;11.00;99.90;;;;;;5114627;28;20169;-54
2023/01/05 02:31:34;;;;;;;26.20;6.95;;;11.10;99.90;;;;;;5114758;28;20228;-54
2023/01/05 02:34:06;;;;;;;28.58;7.55;;;11.00;99.90;;;;;;5114929;28;20166;-56
2023/01/05 02:37:07;;;;;;;22.48;6.97;;;11.10;99.90;;;;;;5114505;28;20165;-57
2023/01/05 02:40:01;;;;;;;31.65;7.97;;;11.10;99.90;;;;;;5114621;28;20194;-54
2023/01/05 02:42:31;;;;;;;29.90;7.32;;;11.10;99.90;;;;;;5114432;28;20209;-55
2023/01/05 02:45:04;;;;;;;25.98;6.40;;;11.10;99.90;;;;;;5113369;28;20203;-54
2023/01/05 02:47:39;;;;;;;29.40;6.78;;;11.20;99.90;;;;;;5113463;28;20193;-54
2023/01/05 02:50:14;;;;;;;25.10;6.90;;;11.20;99.90;;;;;;5113616;28;20168;-54
2023/01/05 02:52:50;;;;;;;25.10;6.88;;;11.30;99.90;;;;;;5113523;28;20173;-54
2023/01/05 02:55:19;;;;;;;25.73;7.35;;;11.20;99.90;;;;;;5113363;28;20172;-54
2023/01/05 02:58:00;;;;;;;27.23;7.00;;;11.20;99.90;;;;;;5113322;28;20165;-54
2023/01/05 03:00:32;;;;;;;23.88;7.32;;;11.30;99.90;;;;;;5113328;28;20618;-54
2023/01/05 03:03:08;;;;;;;28.70;7.70;;;11.10;99.90;;;;;;5113310;28;20729;-55
2023/01/05 03:05:53;;;;;;;29.73;7.30;;;11.30;99.90;;;;;;5113306;28;20165;-54
2023/01/05 03:08:22;;;;;;;31.85;7.70;;;11.10;99.90;;;;;;5111897;28;20169;-54
2023/01/05 03:13:49;;;;;;;27.83;7.55;;;11.10;99.90;;;;;;5113117;28;20542;-54
2023/01/05 03:16:26;;;;;;;25.48;7.47;;;11.10;99.90;;;;;;5113189;28;20168;-53
2023/01/05 03:35:37;;;;;;;35.53;8.15;;;11.30;99.90;;;;;;5112759;28;20269;-54
2023/01/05 03:38:37;;;;;;;24.00;7.43;;;11.30;99.90;;;;;;5112971;28;20172;-54
2023/01/05 03:41:08;;;;;;;28.10;7.75;;;11.30;99.90;;;;;;5101462;28;20716;-55
2023/01/05 03:43:38;;;;;;;23.83;7.03;;;11.30;99.90;;;;;;5072344;28;1152007;-56
2023/01/05 03:46:24;;;;;;;31.27;7.80;;;11.30;99.90;;;;;;5113436;28;20173;-54
2023/01/05 03:48:50;;;;;;;29.63;7.47;;;11.30;99.90;;;;;;5113363;28;20637;-55
2023/01/05 03:51:16;;;;;;;33.53;7.90;;;11.30;99.90;;;;;;5113578;28;20169;-54
2023/01/05 03:53:42;;;;;;;36.05;8.07;;;11.20;99.90;;;;;;5113513;28;20256;-54
2023/01/05 03:56:08;;;;;;;32.67;7.55;;;11.20;99.90;;;;;;5113677;28;20250;-55
2023/01/05 03:58:33;;;;;;;26.45;7.50;;;11.20;99.90;;;;;;5113293;28;20227;-52
2023/01/05 04:01:03;;;;;;;29.13;7.57;;;11.20;99.90;;;;;;5113259;28;20709;-56
2023/01/05 04:03:29;;;;;;;33.20;7.43;;;11.20;99.90;;;;;;5113725;28;20173;-54
2023/01/05 04:05:55;;;;;;;28.77;7.97;;;11.10;99.90;;;;;;5113452;28;20887;-54
2023/01/05 04:08:20;;;;;;;32.65;7.80;;;11.20;99.90;;;;;;5113358;28;20178;-54
2023/01/05 04:10:46;;;;;;;30.25;7.88;;;11.20;99.90;;;;;;5113199;28;20182;-54
2023/01/05 04:13:11;;;;;;;25.58;7.07;;;11.20;99.90;;;;;;5113451;28;20222;-55
2023/01/05 04:15:39;;;;;;;37.03;8.05;;;11.10;99.90;;;;;;5113387;28;20177;-54
2023/01/05 04:18:04;;;;;;;30.33;8.43;;;11.10;99.90;;;;;;5113303;28;20223;-55
2023/01/05 04:20:30;;;;;;;27.30;7.70;;;11.20;99.90;;;;;;5113523;28;20173;-54
2023/01/05 04:22:56;;;;;;;26.98;7.40;;;11.10;99.90;;;;;;5111773;28;20209;-54
2023/01/05 04:25:21;;;;;;;31.17;7.82;;;11.10;99.90;;;;;;5113103;28;20619;-54
2023/01/05 04:27:47;;;;;;;27.23;7.68;;;11.20;99.90;;;;;;5113309;28;20177;-56
2023/01/05 04:30:13;;;;;;;29.42;7.68;;;11.20;99.90;;;;;;5113030;28;20184;-54
2023/01/05 04:32:38;;;;;;;22.52;7.25;;;11.20;99.90;;;;;;5113193;28;20263;-54
2023/01/05 04:35:04;;;;;;;25.60;7.88;;;11.30;99.90;;;;;;5113144;28;20523;-54
2023/01/05 04:37:30;;;;;;;34.35;7.85;;;11.30;99.90;;;;;;5111701;28;20178;-55
2023/01/05 04:39:56;;;;;;;25.50;6.90;;;11.30;99.90;;;;;;5113262;28;20170;-54
2023/01/05 04:42:21;;;;;;;32.33;7.40;;;11.30;99.90;;;;;;5114795;28;20292;-54
2023/01/05 04:44:47;;;;;;;24.60;7.28;;;11.30;99.90;;;;;;5115322;28;20193;-56
2023/01/05 04:47:12;;;;;;;27.75;7.55;;;11.20;99.90;;;;;;5116720;28;20223;-54
2023/01/05 04:49:38;;;;;;;31.30;7.70;;;11.20;99.90;;;;;;5116610;28;20226;-54
2023/01/05 04:52:05;;;;;;;31.92;7.57;;;11.20;99.90;;;;;;5116545;28;20177;-54
2023/01/05 04:54:30;;;;;;;31.58;7.93;;;11.30;99.90;;;;;;5116387;28;20530;-53
2023/01/05 04:56:56;;;;;;;29.00;8.07;;;11.20;99.90;;;;;;5116406;28;20236;-54
2023/01/05 04:59:21;;;;;;;31.42;7.22;;;11.20;99.90;;;;;;5116788;28;20174;-55
2023/01/05 05:01:47;;;;;;;30.38;8.35;;;11.20;99.90;;;;;;5116376;28;20201;-56
2023/01/05 05:04:13;;;;;;;31.08;8.27;;;11.10;99.90;;;;;;5116260;28;20535;-56
2023/01/05 05:06:38;;;;;;;27.67;7.53;;;11.10;99.90;;;;;;5115321;28;20267;-54
2023/01/05 05:09:04;;;;;;;24.13;6.82;;;11.10;99.90;;;;;;5116112;28;20178;-54
2023/01/05 05:11:30;;;;;;;29.13;8.15;;;11.10;99.90;;;;;;5116482;28;20231;-55
2023/01/05 05:13:56;;;;;;;30.52;8.05;;;11.10;99.90;;;;;;5116079;28;20665;-56
2023/01/05 05:16:25;;;;;;;30.05;7.53;;;11.20;99.90;;;;;;5116426;28;20221;-56
2023/01/05 05:18:51;;;;;;;23.70;7.40;;;11.20;99.90;;;;;;5114936;28;20161;-53
2023/01/05 05:21:16;;;;;;;30.58;8.10;;;11.10;99.90;;;;;;5115732;28;20238;-54
2023/01/05 05:23:42;;;;;;;27.80;7.30;;;11.20;99.90;;;;;;5115903;28;20187;-54
2023/01/05 05:26:08;;;;;;;30.02;7.30;;;11.30;99.90;;;;;;5116030;28;20181;-54
2023/01/05 05:28:33;;;;;;;32.70;7.50;;;11.10;99.90;;;;;;5114838;28;20166;-53
2023/01/05 05:30:59;;;;;;;33.88;8.23;;;11.10;99.90;;;;;;5115889;28;20201;-56
2023/01/05 05:33:25;;;;;;;30.13;8.48;;;11.10;99.90;;;;;;5115791;28;20212;-54
2023/01/05 05:35:51;;;;;;;30.58;7.38;;;10.90;99.90;;;;;;5115685;28;20196;-54
2023/01/05 05:38:17;;;;;;;28.63;7.45;;;10.90;99.90;;;;;;5115559;28;20177;-55
2023/01/05 05:40:42;;;;;;;35.45;8.18;;;10.80;99.90;;;;;;5114001;28;20181;-55
2023/01/05 05:43:08;;;;;;;27.50;7.88;;;10.80;99.90;;;;;;5115519;28;20207;-55
2023/01/05 05:45:33;;;;;;;33.05;8.45;;;10.80;99.90;;;;;;5115556;28;20178;-54
2023/01/05 05:48:02;;;;;;;32.08;8.63;;;10.80;99.90;;;;;;5115543;28;20177;-56
2023/01/05 05:50:28;;;;;;;25.58;7.47;;;10.90;99.90;;;;;;5115300;28;20207;-55
2023/01/05 05:52:53;;;;;;;33.67;8.40;;;11.00;99.90;;;;;;5114877;28;20551;-55
2023/01/05 05:55:19;;;;;;;32.80;8.40;;;11.00;99.90;;;;;;5114976;28;20200;-52
2023/01/05 05:57:45;;;;;;;34.15;8.43;;;11.00;99.90;;;;;;5115471;28;20196;-54
2023/01/05 06:00:11;;;;;;;32.03;8.32;;;10.80;99.90;;;;;;5115301;28;20511;-54
2023/01/05 06:02:36;;;;;;;37.15;8.32;;;10.90;99.90;;;;;;5115254;28;20385;-53
2023/01/05 06:05:02;;;;;;;33.33;8.80;;;10.90;99.90;;;;;;5115103;28;20184;-54
2023/01/05 06:07:28;;;;;;;35.78;9.10;;;10.90;99.90;;;;;;5114941;28;20203;-54
2023/01/05 06:09:54;;;;;;;36.88;8.70;;;10.80;99.90;;;;;;5113388;28;20184;-54
2023/01/05 06:12:19;;;;;;;30.60;8.57;;;10.80;99.90;;;;;;5113821;28;20185;-54
2023/01/05 06:14:45;;;;;;;30.10;7.95;;;10.80;99.90;;;;;;5114397;28;20183;-56
2023/01/05 06:17:10;;;;;;;37.05;9.82;;;10.90;99.90;;;;;;5114365;28;20177;-55
2023/01/05 06:19:36;;;;;;;34.35;8.13;;;10.90;99.90;;;;;;5114468;28;20177;-55
2023/01/05 06:22:02;;;;;;;31.02;8.13;;;10.80;99.90;;;;;;5114371;28;20647;-55
2023/01/05 06:24:27;;;;;;;36.10;8.95;;;10.90;99.90;;;;;;5114888;28;20693;-55
2023/01/05 06:26:53;;;;;;;32.83;8.48;;;10.90;99.90;;;;;;5112864;28;20631;-53
2023/01/05 06:29:19;;;;;;;29.70;8.05;;;11.00;99.90;;;;;;5114375;28;20246;-53
2023/01/05 06:31:44;;;;;;;38.00;9.10;;;10.90;99.90;;;;;;5113234;28;20806;-56
2023/01/05 06:34:10;;;;;;;35.30;8.85;;;11.10;99.90;;;;;;5111463;28;20177;-55
2023/01/05 06:36:36;;;;;;;33.83;8.57;;;11.10;99.90;;;;;;5096170;28;20173;-56
2023/01/05 06:39:01;;;;;;;32.97;8.75;;;11.10;99.90;;;;;;5114346;28;20178;-54
2023/01/05 06:41:27;;;;;;;38.22;8.65;;;11.10;99.90;;;;;;5113976;28;20678;-51
2023/01/05 06:43:52;;;;;;;29.75;8.40;;;11.00;99.90;;;;;;5114124;28;20189;-55
2023/01/05 06:46:18;;;;;;;33.97;8.50;;;11.00;99.90;;;;;;5114032;28;20177;-54
2023/01/05 06:48:44;;;;;;;32.85;9.00;;;11.00;99.90;;;;;;5114096;28;20173;-55
2023/01/05 06:51:09;;;;;;;35.80;8.88;;;10.90;99.90;;;;;;5112861;28;20173;-54
2023/01/05 06:53:35;;;;;;;34.70;9.35;;;10.90;99.90;;;;;;5113961;28;20272;-56
2023/01/05 06:56:01;;;;;;;33.65;8.63;;;10.90;99.90;;;;;;5113962;28;20508;-53
2023/01/05 06:58:26;;;;;;;33.83;8.50;;;10.90;99.90;;;;;;5114094;28;20566;-54
2023/01/05 07:00:55;;;;;;;27.23;7.30;;;10.80;99.90;;;;;;5114160;28;20205;-54
2023/01/05 07:03:23;;;;;;;29.85;8.30;;;10.80;99.90;;;;;;5113872;28;20173;-55
2023/01/05 07:05:49;;;;;;;32.47;9.18;;;10.80;99.90;;;;;;5112223;28;20173;-54
2023/01/05 07:08:14;;;;;;;29.85;8.27;;;10.80;99.90;;;;;;5113991;28;20231;-54
2023/01/05 07:10:40;;;;;;;30.77;8.25;;;10.80;99.90;;;;;;5113786;28;20188;-54
2023/01/05 07:13:06;;;;;;;35.53;8.38;;;10.80;99.90;;;;;;5113852;28;20169;-54
2023/01/05 07:15:31;;;;;;;38.15;9.18;;;10.70;99.90;;;;;;5113717;28;20165;-54
2023/01/05 07:17:57;;;;;;;34.88;8.73;;;10.80;99.90;;;;;;5113836;28;20577;-55
2023/01/05 07:20:22;;;;;;;33.13;8.35;;;10.70;99.90;;;;;;5113602;28;20199;-54
2023/01/05 07:22:48;;;;;;;34.38;8.85;;;10.60;99.90;;;;;;5113469;28;20214;-54
2023/01/05 07:25:14;;;;;;;32.80;8.85;;;10.70;99.90;;;;;;5113771;28;20320;-54
2023/01/05 07:27:39;;;;;;;35.53;8.60;;;10.70;99.90;;;;;;5113454;28;20197;-54
2023/01/05 07:30:06;;;;;;;34.53;8.20;;;10.60;99.90;;;;;;5112269;28;20657;-54
2023/01/05 07:32:31;;;;;;;27.83;8.32;;;10.60;99.90;;;;;;5113453;28;20177;-54
2023/01/05 07:34:57;;;;;;;36.33;9.30;;;10.60;99.90;;;;;;5113073;28;20184;-54
2023/01/05 07:37:23;;;;;;;30.98;8.82;;;10.60;99.90;;;;;;5112198;28;20195;-56
2023/01/05 07:39:49;;;;;;;32.22;8.90;;;10.60;99.90;;;;;;5113588;28;20171;-53
2023/01/05 07:42:15;;;;;;;30.77;8.95;;;10.50;99.90;;;;;;5113047;28;20224;-54
2023/01/05 07:44:40;;;;;;;32.15;9.05;;;10.40;99.90;;;;;;5113459;28;20284;-53
2023/01/05 07:47:06;;;;;;;34.88;9.07;;;10.40;99.90;;;;;;5113331;28;20204;-54
2023/01/05 07:49:32;;;;;;;35.97;8.63;;;10.50;99.90;;;;;;5113181;28;20221;-54
2023/01/05 07:51:58;;;;;;;32.47;9.05;;;10.50;99.90;;;;;;5113068;28;20185;-55
2023/01/05 07:54:24;;;;;;;37.20;9.20;;;10.50;99.90;;;;;;5112106;28;20169;-54
2023/01/05 07:56:49;;;;;;;36.38;9.15;;;10.60;99.90;;;;;;5113271;28;20177;-54
2023/01/05 07:59:15;;;;;;;31.95;8.50;;;10.60;99.90;;;;;;5113348;28;20169;-53
2023/01/05 08:01:41;;;;;;;39.42;9.65;;;10.60;99.90;;;;;;5113166;28;20235;-54
2023/01/05 08:04:07;;;;;;;40.15;10.02;;;10.60;99.90;;;;;;5111468;28;20752;-54
2023/01/05 08:06:33;;;;;;;33.70;9.40;;;10.50;99.90;;;;;;5113213;28;20642;-54
2023/01/05 08:10:27;;;;;;;38.22;9.73;;;10.50;99.90;;;;;;5113111;28;20177;-54
2023/01/05 08:11:44;;;;;;;33.55;9.45;;;10.60;99.90;;;;;;5112422;28;20678;-53
2023/01/05 08:14:13;;;;;;;34.88;8.55;;;10.50;99.90;;;;;;5113432;28;20166;-54
2023/01/05 08:16:38;;;;;;;35.25;9.27;;;10.60;99.90;;;;;;5113805;28;20181;-55
2023/01/05 08:19:04;;;;;;;36.13;9.43;;;10.50;99.90;;;;;;5117212;28;20173;-54
2023/01/05 08:21:30;;;;;;;38.05;9.15;;;10.50;99.90;;;;;;5117249;27;20227;-53
2023/01/05 08:23:58;;;;;;;31.00;8.45;;;10.60;99.90;;;;;;5117103;28;20202;-54
2023/01/05 08:26:24;;;;;;;35.60;8.98;;;10.60;99.90;;;;;;5117155;28;20195;-53
2023/01/05 08:28:51;;;;;;;30.40;8.30;;;10.60;99.90;;;;;;5116987;28;20264;-53
2023/01/05 08:31:26;;;;;;;35.72;8.93;;;10.60;99.90;;;;;;5116927;28;20180;-54
2023/01/05 08:33:58;;;;;;;27.63;8.30;;;10.80;99.90;;;;;;5116860;28;20726;-53
2023/01/05 08:36:25;;;;;;;36.50;8.38;;;10.80;99.90;;;;;;5116853;28;20650;-54
2023/01/05 08:38:54;;;;;;;40.60;9.45;;;10.80;99.90;;;;;;5116930;28;20252;-54
2023/01/05 08:41:21;;;;;;;36.97;8.57;;;10.70;99.90;;;;;;5116851;28;20232;-54
2023/01/05 08:44:01;;;;;;;32.15;8.50;;;10.60;99.90;;;;;;5116515;28;20193;-55
2023/01/05 08:46:31;;;;;;;40.45;9.43;;;10.50;99.90;;;;;;5116818;28;20172;-53
2023/01/05 08:48:59;;;;;;;34.88;8.60;;;10.50;99.90;;;;;;5116745;28;20169;-54
2023/01/05 08:51:25;;;;;;;33.75;8.75;;;10.50;99.90;;;;;;5116653;27;20181;-54
2023/01/05 08:53:51;;;;;;;35.40;9.38;;;10.50;99.90;;;;;;5116572;28;20253;-55
2023/01/05 08:56:18;;;;;;;32.45;9.10;;;10.40;99.90;;;;;;5116488;28;20177;-54
2023/01/05 08:58:43;;;;;;;35.17;8.80;;;10.40;99.90;;;;;;5116292;28;20177;-54
2023/01/05 09:01:15;;;;;;;29.30;7.88;;;10.40;99.90;;;;;;5116557;28;20211;-54
2023/01/05 09:03:41;;;;;;;27.27;8.43;;;10.50;99.90;;;;;;5116351;28;20177;-54
2023/01/05 09:06:10;;;;;;;30.65;8.93;;;10.60;99.90;;;;;;5116592;28;20223;-54
2023/01/05 09:08:37;;;;;;;38.42;8.73;;;10.50;99.90;;;;;;5116290;27;20173;-54
2023/01/05 09:11:21;;;;;;;30.92;8.07;;;10.40;99.90;;;;;;5116046;28;20184;-54
2023/01/05 09:13:55;;;;;;;33.28;8.75;;;10.50;99.90;;;;;;5116379;28;20168;-55
2023/01/05 09:16:24;;;;;;;33.30;9.38;;;10.50;99.90;;;;;;5116276;28;20255;-54
2023/01/05 09:18:50;;;;;;;31.35;9.20;;;10.50;99.90;;;;;;5116037;28;20648;-54
2023/01/05 09:21:16;;;;;;;33.30;9.30;;;10.50;99.90;;;;;;5115945;28;20201;-54
2023/01/05 09:23:42;;;;;;;40.10;9.95;;;10.50;99.90;;;;;;5115969;28;20594;-54
2023/01/05 09:26:10;;;;;;;33.50;9.38;;;10.50;99.90;;;;;;5116003;28;20205;-54
2023/01/05 09:28:36;;;;;;;31.70;8.95;;;10.60;99.90;;;;;;5115931;28;20173;-55
2023/01/05 09:31:20;;;;;;;28.35;9.48;;;10.60;99.90;;;;;;5115929;28;20174;-54
2023/01/05 09:33:46;;;;;;;30.85;9.00;;;10.70;99.90;;;;;;5115716;28;20199;-56
2023/01/05 09:36:13;;;;;;;28.75;8.27;;;10.60;99.90;;;;;;5115867;28;20581;-54
2023/01/05 09:38:39;;;;;;;29.02;8.82;;;10.60;99.90;;;;;;5115893;28;20230;-53
2023/01/05 09:41:15;;;;;;;34.75;8.52;;;10.60;99.90;;;;;;5115791;28;20169;-54
2023/01/05 09:43:46;;;;;;;39.53;9.00;;;10.60;99.90;;;;;;5115854;28;20207;-54
2023/01/05 09:46:32;;;;;;;30.45;8.80;;;10.70;99.90;;;;;;5115555;28;20184;-54
2023/01/05 09:49:05;;;;;;;36.85;9.23;;;10.60;99.90;;;;;;5115032;28;20264;-54
2023/01/05 09:51:32;;;;;;;31.85;8.65;;;10.70;99.90;;;;;;5115599;28;20169;-54
2023/01/05 09:53:59;;;;;;;31.30;8.63;;;10.50;99.90;;;;;;5115459;28;20173;-53
2023/01/05 09:56:35;;;;;;;37.00;9.35;;;10.60;99.90;;;;;;5115310;28;20651;-53
2023/01/05 09:59:11;;;;;;;32.03;8.38;;;10.50;99.90;;;;;;5115304;28;20636;-55
2023/01/05 10:01:38;;;;;;;33.13;8.52;;;10.60;99.90;;;;;;5115331;28;20241;-55
2023/01/05 10:04:26;;;;;;;33.22;8.07;;;10.80;99.90;;;;;;5115280;28;20181;-52
2023/01/05 10:07:04;;;;;;;36.75;8.60;;;10.80;99.90;;;;;;5105319;28;20515;-54
2023/01/05 10:09:38;;;;;;;37.00;8.90;;;10.80;99.90;;;;;;5115044;28;20248;-51
2023/01/05 10:15:10;;;;;;;26.20;7.47;;;10.80;99.90;;;;;;5114467;28;20688;-56
2023/01/05 10:17:40;;;;;;;32.70;8.93;;;10.70;99.90;;;;;;5114813;28;20667;-57
2023/01/05 10:20:34;;;;;;;30.92;8.02;;;10.80;99.90;;;;;;5115101;28;20218;-55
2023/01/05 10:23:20;;;;;;;28.98;7.95;;;10.70;99.90;;;;;;5114729;28;20197;-55
2023/01/05 10:25:58;;;;;;;35.03;8.65;;;10.70;99.90;;;;;;5114840;28;20246;-55
2023/01/05 10:28:46;;;;;;;32.13;8.75;;;10.70;99.90;;;;;;5114759;28;20165;-54
2023/01/05 10:31:21;;;;;;;29.67;8.25;;;10.70;99.90;;;;;;5113585;28;20168;-57
2023/01/05 10:33:57;;;;;;;34.35;8.52;;;10.80;99.90;;;;;;5114361;28;20190;-57
2023/01/05 10:36:58;;;;;;;27.67;7.45;;;10.80;99.90;;;;;;5114406;28;20165;-57
2023/01/05 10:39:47;;;;;;;31.48;8.55;;;11.00;99.90;;;;;;5110676;28;20216;-57
2023/01/05 10:43:14;;;;;;;32.15;8.05;;;11.00;99.90;;;;;;5114200;28;20737;-57
2023/01/05 10:45:40;;;;;;;29.58;8.50;;;11.10;99.90;;;;;;5051127;28;20553;-55
2023/01/05 10:48:14;;;;;;;34.05;7.70;;;11.10;99.90;;;;;;5051539;28;20183;-56
2023/01/05 10:50:41;;;;;;;33.40;8.32;;;11.30;99.90;;;;;;5094015;28;20181;-56
2023/01/05 10:53:12;;;;;;;28.63;7.78;;;11.40;99.90;;;;;;5114177;28;20189;-57
2023/01/05 10:56:03;;;;;;;32.75;8.73;;;11.50;99.90;;;;;;5114114;28;20252;-57
2023/01/05 10:58:40;;;;;;;30.63;8.25;;;11.60;99.90;;;;;;5113660;28;20203;-57
2023/01/05 11:01:23;;;;;;;31.45;8.48;;;11.80;99.90;;;;;;5105195;28;20526;-55
2023/01/05 11:03:53;;;;;;;31.45;8.52;;;12.00;99.90;;;;;;5114136;28;20238;-57
2023/01/05 11:06:26;;;;;;;31.15;8.27;;;12.00;99.90;;;;;;5114322;28;20169;-57
2023/01/05 11:08:53;;;;;;;38.75;8.90;;;12.00;99.90;;;;;;5113810;28;20654;-55
2023/01/05 11:11:24;;;;;;;24.40;7.65;;;12.20;99.90;;;;;;5114025;28;20185;-55
2023/01/05 11:13:55;;;;;;;27.48;8.23;;;12.20;99.90;;;;;;5113562;28;20177;-56
2023/01/05 11:16:33;;;;;;;27.02;8.07;;;12.00;99.90;;;;;;5113670;28;20511;-55
2023/01/05 11:19:03;;;;;;;27.00;7.72;;;12.00;99.90;;;;;;5112637;28;20181;-57
2023/01/05 11:21:35;;;;;;;31.20;8.40;;;11.90;99.90;;;;;;5112374;28;20696;-57
2023/01/05 11:24:02;;;;;;;26.13;7.22;;;12.00;99.90;;;;;;5113424;28;20177;-57
2023/01/05 11:26:35;;;;;;;29.42;7.97;;;12.00;99.90;;;;;;5113446;28;20631;-56
2023/01/05 11:29:07;;;;;;;31.40;7.65;;;12.10;99.90;;;;;;5112218;28;20622;-55
2023/01/05 11:31:52;;;;;;;28.10;7.82;;;12.20;99.90;;;;;;5113808;28;20645;-56
2023/01/05 11:34:42;;;;;;;27.67;8.38;;;12.30;99.90;;;;;;5113533;28;20169;-55
2023/01/05 11:37:11;;;;;;;33.08;7.53;;;12.40;99.90;;;;;;5113388;28;20173;-56
2023/01/05 11:40:00;;;;;;;31.88;8.05;;;12.50;99.90;;;;;;5113333;28;20169;-57
2023/01/05 11:42:26;;;;;;;29.27;8.05;;;12.60;99.90;;;;;;5113611;28;20205;-57
2023/01/05 11:45:01;;;;;;;25.63;7.43;;;12.60;99.90;;;;;;5113347;28;20558;-56
2023/01/05 11:47:27;;;;;;;25.02;7.68;;;12.60;99.90;;;;;;5112987;28;20169;-56
2023/01/05 11:50:01;;;;;;;26.15;7.80;;;12.50;99.90;;;;;;5113540;28;20637;-56
2023/01/05 11:52:38;;;;;;;30.70;7.95;;;12.60;99.90;;;;;;5115363;28;20582;-57
2023/01/05 11:55:19;;;;;;;27.05;7.82;;;12.70;99.90;;;;;;5116713;27;20173;-56
2023/01/05 11:57:45;;;;;;;27.52;7.97;;;12.50;99.90;;;;;;5117383;28;20204;-56
2023/01/05 12:00:24;;;;;;;31.60;7.88;;;12.50;99.90;;;;;;5117412;28;20258;-57
2023/01/05 12:03:04;;;;;;;28.90;7.53;;;12.60;99.90;;;;;;5117301;28;20195;-56
2023/01/05 12:05:56;;;;;;;25.73;7.88;;;12.60;99.90;;;;;;5117366;28;20222;-56
2023/01/05 12:08:45;;;;;;;28.65;6.90;;;12.70;99.90;;;;;;5116214;28;20234;-55
2023/01/05 12:11:16;;;;;;;26.75;7.70;;;12.70;99.90;;;;;;5117448;28;20230;-57
2023/01/05 12:14:17;;;;;;;31.00;8.05;;;12.70;99.90;;;;;;5117367;28;20252;-54
2023/01/05 12:16:56;;;;;;;22.08;7.05;;;12.60;99.90;;;;;;5117496;28;20163;-57
2023/01/05 12:19:34;;;;;;;28.33;7.68;;;12.60;99.90;;;;;;5117054;28;20178;-55
2023/01/05 12:22:20;;;;;;;26.70;7.75;;;12.60;99.90;;;;;;5116632;28;20276;-58
2023/01/05 12:25:18;;;;;;;28.52;7.65;;;12.70;99.90;;;;;;5116279;28;20173;-55
2023/01/05 12:28:06;;;;;;;30.30;8.13;;;12.80;99.90;;;;;;5105304;28;20582;-57
2023/01/05 12:30:40;;;;;;;30.05;8.00;;;12.70;99.90;;;;;;5117052;28;20193;-55
2023/01/05 12:33:06;;;;;;;23.05;6.93;;;12.70;99.90;;;;;;5115718;28;20572;-57
2023/01/05 12:35:45;;;;;;;28.88;7.50;;;12.90;99.90;;;;;;5117146;28;20170;-56
2023/01/05 12:38:23;;;;;;;32.65;7.80;;;12.80;99.90;;;;;;5117083;28;20653;-56
2023/01/05 12:41:08;;;;;;;26.10;7.68;;;12.80;99.90;;;;;;5116704;28;20685;-57
2023/01/05 12:43:51;;;;;;;27.10;6.78;;;12.80;99.90;;;;;;5116613;28;20188;-55
2023/01/05 12:46:57;;;;;;;28.92;7.72;;;12.90;99.90;;;;;;5116942;28;20169;-56
2023/01/05 12:49:30;;;;;;;31.60;7.20;;;12.90;99.90;;;;;;5116711;28;20173;-57
2023/01/05 12:52:09;;;;;;;30.90;7.50;;;12.90;99.90;;;;;;5116576;28;20171;-56
2023/01/05 12:54:47;;;;;;;32.83;7.88;;;12.90;99.90;;;;;;5117063;28;20286;-57
2023/01/05 12:57:31;;;;;;;27.50;7.65;;;13.10;99.90;;;;;;5116711;28;20199;-57
2023/01/05 13:00:11;;;;;;;31.17;8.15;;;13.10;99.90;;;;;;5116628;28;20260;-55
2023/01/05 13:02:45;;;;;;;29.48;7.07;;;13.10;99.90;;;;;;5116133;28;20200;-57
2023/01/05 13:05:20;;;;;;;28.33;8.15;;;13.00;99.90;;;;;;5116490;28;20169;-58
2023/01/05 13:08:01;;;;;;;30.17;7.88;;;13.00;99.90;;;;;;5116300;28;20169;-55
2023/01/05 13:10:43;;;;;;;39.25;8.20;;;13.00;99.90;;;;;;5116192;28;20173;-57
2023/01/05 13:13:19;;;;;;;32.38;7.97;;;12.90;99.90;;;;;;5116503;28;20180;-55
2023/01/05 13:16:23;;;;;;;29.88;8.35;;;12.90;99.90;;;;;;5116208;28;20207;-54
2023/01/05 13:19:05;;;;;;;33.78;8.30;;;12.90;99.90;;;;;;5107843;28;20216;-57
2023/01/05 13:21:32;;;;;;;26.67;7.50;;;13.00;99.90;;;;;;5115068;28;20204;-57
2023/01/05 13:24:04;;;;;;;27.58;7.88;;;12.90;99.90;;;;;;5116037;28;20538;-55
2023/01/05 13:26:30;;;;;;;32.47;7.95;;;12.80;99.90;;;;;;5116047;28;20176;-56
2023/01/05 13:28:56;;;;;;;26.65;7.50;;;12.80;99.90;;;;;;5115859;28;20181;-55